createdAt,value
2019-04-14T00:02:49.177Z,2.60
2019-04-14T00:05:18.922Z,2.59
2019-04-14T00:07:49.447Z,2.61
2019-04-14T00:10:20.387Z,2.63
2019-04-14T00:12:51.308Z,2.63
2019-04-14T00:15:29.486Z,2.65
2019-04-14T00:17:56.778Z,2.66
2019-04-14T00:20:27.180Z,2.68
2019-04-14T00:22:57.594Z,2.65
2019-04-14T00:25:28.267Z,2.61
2019-04-14T00:27:58.617Z,2.61
2019-04-14T00:30:27.949Z,2.60
2019-04-14T00:33:00.067Z,2.60
2019-04-14T00:35:38.585Z,2.57
2019-04-14T00:38:20.239Z,2.59
2019-04-14T00:41:37.109Z,2.58
2019-04-14T00:44:17.121Z,2.48
2019-04-14T00:46:53.849Z,2.44
2019-04-14T00:49:24.628Z,2.34
2019-04-14T00:51:54.910Z,2.21
2019-04-14T00:54:24.510Z,2.10
2019-04-14T00:56:54.147Z,2.01
2019-04-14T00:59:24.528Z,1.97
2019-04-14T01:01:54.786Z,1.93
2019-04-14T01:04:25.128Z,1.96
2019-04-14T01:06:55.456Z,1.97
2019-04-14T01:09:24.772Z,1.98
2019-04-14T01:11:55.215Z,1.95
2019-04-14T01:14:25.571Z,1.91
2019-04-14T01:16:55.859Z,1.87
2019-04-14T01:19:25.105Z,1.79
2019-04-14T01:21:54.636Z,1.69
2019-04-14T01:24:25.005Z,1.59
2019-04-14T01:26:55.075Z,1.49
2019-04-14T01:29:25.422Z,1.41
2019-04-14T01:31:55.790Z,1.37
2019-04-14T01:34:26.006Z,1.37
2019-04-14T01:36:56.116Z,1.40
2019-04-14T01:39:26.524Z,1.46
2019-04-14T01:41:56.434Z,1.53
2019-04-14T01:44:28.714Z,1.60
2019-04-14T01:46:58.807Z,1.65
2019-04-14T01:49:29.248Z,1.68
2019-04-14T01:52:27.372Z,1.67
2019-04-14T01:55:20.055Z,1.61
2019-04-14T01:57:57.552Z,1.55
2019-04-14T02:00:46.676Z,1.52
2019-04-14T02:03:17.049Z,1.47
2019-04-14T02:05:47.426Z,1.36
2019-04-14T02:08:17.767Z,1.24
2019-04-14T02:10:47.857Z,1.12
2019-04-14T02:13:18.157Z,1.00
2019-04-14T02:15:48.549Z,0.89
2019-04-14T02:18:18.573Z,0.82
2019-04-14T02:20:49.041Z,0.73
2019-04-14T02:23:19.261Z,0.72
2019-04-14T02:25:49.369Z,0.76
2019-04-14T02:28:19.801Z,0.79
2019-04-14T02:31:00.141Z,0.92
2019-04-14T02:33:44.437Z,1.00
2019-04-14T02:36:21.958Z,1.06
2019-04-14T02:44:01.552Z,1.16
2019-04-14T02:46:27.839Z,1.16
2019-04-14T02:49:04.574Z,1.14
2019-04-14T02:51:26.941Z,1.13
2019-04-14T02:53:59.411Z,1.13
2019-04-14T02:59:02.091Z,1.24
2019-04-14T03:04:01.588Z,1.16
2019-04-14T03:06:38.554Z,1.04
2019-04-14T03:09:10.117Z,0.89
2019-04-14T03:11:32.958Z,0.73
2019-04-14T03:14:06.353Z,0.63
2019-04-14T03:17:06.140Z,0.55
2019-04-14T03:19:59.072Z,0.59
2019-04-14T03:22:36.915Z,0.68
2019-04-14T03:25:22.555Z,0.64
2019-04-14T03:27:58.591Z,0.59
2019-04-14T03:30:58.608Z,0.55
2019-04-14T03:38:12.770Z,0.24
2019-04-14T03:40:42.870Z,0.31
2019-04-14T03:43:25.199Z,0.36
2019-04-14T03:45:55.069Z,0.34
2019-04-14T03:50:48.049Z,0.25
2019-04-14T03:53:48.729Z,0.24
2019-04-14T03:56:00.764Z,0.21
2019-04-14T03:58:27.227Z,0.12
2019-04-14T04:00:57.617Z,0.00
2019-04-14T04:03:27.963Z,0.01
2019-04-14T04:05:58.541Z,0.07
2019-04-14T04:08:29.033Z,0.06
2019-04-14T04:10:59.804Z,0.09
2019-04-14T04:13:30.211Z,0.09
2019-04-14T04:16:15.915Z,-0.01
2019-04-14T04:18:56.255Z,-0.12
2019-04-14T04:21:29.147Z,-0.16
2019-04-14T04:24:11.008Z,-0.22
2019-04-14T04:27:00.325Z,-0.33
2019-04-14T04:29:48.458Z,-0.43
2019-04-14T04:32:33.998Z,-0.45
2019-04-14T04:35:13.150Z,-0.43
2019-04-14T04:37:56.097Z,-0.40
2019-04-14T04:40:29.040Z,-0.36
2019-04-14T04:42:59.079Z,-0.37
2019-04-14T04:45:29.870Z,-0.40
2019-04-14T04:48:00.247Z,-0.41
2019-04-14T04:50:30.353Z,-0.43
2019-04-14T04:53:00.441Z,-0.45
2019-04-14T04:55:30.600Z,-0.46
2019-04-14T04:58:01.269Z,-0.50
2019-04-14T05:00:31.033Z,-0.51
2019-04-14T05:03:01.417Z,-0.48
2019-04-14T05:06:06.743Z,-0.43
2019-04-14T05:08:39.097Z,-0.37
2019-04-14T05:11:14.948Z,-0.28
2019-04-14T05:13:46.841Z,-0.22
2019-04-14T05:16:19.214Z,-0.15
2019-04-14T05:18:48.749Z,-0.10
2019-04-14T05:21:19.240Z,-0.04
2019-04-14T05:23:49.544Z,0.04
2019-04-14T05:26:19.811Z,0.09
2019-04-14T05:28:50.543Z,0.13
2019-04-14T05:31:20.769Z,0.19
2019-04-14T05:33:51.170Z,0.24
2019-04-14T05:36:21.473Z,0.30
2019-04-14T05:38:51.817Z,0.37
2019-04-14T05:41:22.270Z,0.43
2019-04-14T05:43:56.560Z,0.48
2019-04-14T05:46:23.100Z,0.52
2019-04-14T05:48:53.600Z,0.56
2019-04-14T05:51:24.558Z,0.63
2019-04-14T05:53:54.558Z,0.71
2019-04-14T05:56:23.852Z,0.78
2019-04-14T05:58:53.631Z,0.82
2019-04-14T06:01:24.736Z,0.89
2019-04-14T06:03:54.135Z,0.95
2019-04-14T06:06:23.527Z,1.01
2019-04-14T06:08:52.757Z,1.09
2019-04-14T06:11:23.073Z,1.12
2019-04-14T06:13:52.504Z,1.19
2019-04-14T06:16:21.832Z,1.23
2019-04-14T06:18:51.174Z,1.33
2019-04-14T06:21:20.499Z,1.36
2019-04-14T06:23:49.872Z,1.51
2019-04-14T06:26:20.102Z,1.56
2019-04-14T06:28:49.439Z,1.60
2019-04-14T06:31:31.686Z,1.69
2019-04-14T06:34:07.785Z,1.75
2019-04-14T06:37:05.108Z,1.88
2019-04-14T06:39:37.648Z,1.90
2019-04-14T06:42:07.292Z,1.92
2019-04-14T06:44:36.661Z,1.87
2019-04-14T06:47:05.971Z,2.06
2019-04-14T06:49:35.392Z,2.13
2019-04-14T06:52:04.772Z,2.22
2019-04-14T06:54:34.372Z,2.18
2019-04-14T06:57:04.327Z,2.39
2019-04-14T06:59:33.712Z,2.49
2019-04-14T07:02:03.181Z,2.51
2019-04-14T07:04:32.516Z,2.57
2019-04-14T07:07:02.068Z,2.55
2019-04-14T07:09:31.401Z,2.62
2019-04-14T07:12:01.065Z,2.54
2019-04-14T07:14:31.954Z,2.72
2019-04-14T07:17:01.605Z,2.96
2019-04-14T07:19:30.844Z,3.29
2019-04-14T07:22:00.452Z,3.40
2019-04-14T07:24:29.761Z,3.45
2019-04-14T07:26:59.109Z,3.56
2019-04-14T07:29:31.391Z,3.59
2019-04-14T07:32:25.911Z,3.51
2019-04-14T07:35:26.149Z,3.33
2019-04-14T07:38:12.678Z,3.68
2019-04-14T07:41:09.584Z,3.78
2019-04-14T07:43:57.773Z,3.87
2019-04-14T07:46:45.995Z,4.04
2019-04-14T07:49:43.385Z,4.23
2019-04-14T07:52:35.307Z,4.33
2019-04-14T07:55:33.160Z,4.23
2019-04-14T07:58:24.178Z,4.24
2019-04-14T08:01:00.499Z,4.60
2019-04-14T08:03:51.662Z,4.76
2019-04-14T08:06:21.214Z,4.77
2019-04-14T08:08:50.610Z,4.76
2019-04-14T08:11:20.090Z,5.00
2019-04-14T08:13:49.456Z,4.93
2019-04-14T08:16:19.198Z,4.79
2019-04-14T08:18:48.543Z,4.98
2019-04-14T08:21:17.887Z,5.13
2019-04-14T08:23:47.136Z,5.21
2019-04-14T08:26:16.481Z,5.23
2019-04-14T08:28:45.964Z,5.37
2019-04-14T08:31:15.661Z,5.48
2019-04-14T08:33:45.135Z,5.50
2019-04-14T08:36:14.867Z,5.61
2019-04-14T08:38:44.520Z,5.62
2019-04-14T08:41:13.875Z,5.85
2019-04-14T08:43:52.838Z,5.91
2019-04-14T08:46:55.106Z,5.98
2019-04-14T08:49:50.757Z,6.02
2019-04-14T08:52:45.179Z,6.23
2019-04-14T08:55:36.468Z,6.22
2019-04-14T08:58:20.371Z,6.26
2019-04-14T09:01:08.084Z,6.34
2019-04-14T09:03:56.389Z,6.54
2019-04-14T09:06:43.832Z,6.70
2019-04-14T09:09:30.476Z,6.63
2019-04-14T09:12:14.970Z,6.65
2019-04-14T09:14:34.473Z,6.81
2019-04-14T09:17:04.501Z,6.96
2019-04-14T09:19:34.163Z,6.92
2019-04-14T09:22:03.827Z,6.80
2019-04-14T09:24:34.293Z,6.94
2019-04-14T09:27:04.048Z,7.06
2019-04-14T09:29:33.937Z,7.20
2019-04-14T09:32:05.001Z,6.99
2019-04-14T09:34:34.447Z,7.03
2019-04-14T09:37:03.774Z,7.07
2019-04-14T09:39:33.442Z,7.26
2019-04-14T09:42:03.325Z,7.47
2019-04-14T09:44:32.561Z,7.86
2019-04-14T09:47:01.840Z,7.87
2019-04-14T09:49:31.411Z,7.61
2019-04-14T09:52:00.720Z,7.66
2019-04-14T09:54:30.380Z,7.85
2019-04-14T09:56:59.817Z,7.66
2019-04-14T09:59:29.243Z,7.52
2019-04-14T10:01:58.999Z,7.58
2019-04-14T10:04:28.555Z,7.71
2019-04-14T10:07:02.634Z,7.97
2019-04-14T10:09:32.026Z,8.20
2019-04-14T10:12:02.075Z,8.59
2019-04-14T10:14:31.692Z,8.69
2019-04-14T10:17:01.614Z,8.62
2019-04-14T10:19:32.666Z,8.83
2019-04-14T10:22:02.217Z,9.09
2019-04-14T10:24:31.883Z,9.35
2019-04-14T10:27:02.042Z,9.71
2019-04-14T10:29:32.881Z,9.75
2019-04-14T10:32:04.581Z,9.74
2019-04-14T10:34:35.041Z,9.68
2019-04-14T10:37:22.398Z,9.37
2019-04-14T10:39:52.523Z,9.56
2019-04-14T10:42:26.022Z,9.61
2019-04-14T10:45:24.391Z,9.74
2019-04-14T10:48:01.890Z,10.04
2019-04-14T10:51:03.438Z,9.85
2019-04-14T10:53:59.284Z,9.94
2019-04-14T10:59:35.795Z,9.95
2019-04-14T11:02:07.352Z,10.83
2019-04-14T11:04:44.780Z,10.74
2019-04-14T11:07:33.705Z,10.91
2019-04-14T11:10:06.002Z,10.58
2019-04-14T11:12:54.980Z,10.16
2019-04-14T11:15:26.112Z,9.99
2019-04-14T11:17:58.140Z,10.35
2019-04-14T11:20:39.219Z,10.78
2019-04-14T11:23:14.219Z,10.81
2019-04-14T11:25:48.383Z,10.33
2019-04-14T11:28:22.539Z,10.87
2019-04-14T11:30:53.737Z,11.80
2019-04-14T11:33:35.291Z,12.56
2019-04-14T11:36:44.678Z,13.17
2019-04-14T11:39:33.693Z,13.83
2019-04-14T11:42:37.019Z,13.30
2019-04-14T11:45:12.435Z,13.57
2019-04-14T11:47:42.457Z,13.96
2019-04-14T11:50:13.911Z,14.00
2019-04-14T11:52:43.340Z,13.31
2019-04-14T11:55:21.653Z,13.31
2019-04-14T11:57:51.017Z,13.32
2019-04-14T12:00:49.163Z,13.51
2019-04-14T12:03:45.978Z,13.43
2019-04-14T12:06:35.180Z,11.78
2019-04-14T12:09:24.439Z,11.21
2019-04-14T12:11:56.822Z,12.26
2019-04-14T12:14:54.659Z,13.65
2019-04-14T12:17:32.778Z,14.60
2019-04-14T12:20:02.483Z,14.97
2019-04-14T12:22:32.600Z,13.50
2019-04-14T12:25:13.502Z,12.78
2019-04-14T12:28:00.415Z,11.61
2019-04-14T12:30:31.227Z,11.12
2019-04-14T12:33:05.262Z,10.59
2019-04-14T12:35:35.441Z,10.19
2019-04-14T12:38:04.754Z,9.96
2019-04-14T12:40:34.313Z,11.23
2019-04-14T12:43:21.615Z,12.78
2019-04-14T12:46:12.737Z,13.02
2019-04-14T12:48:59.504Z,12.32
2019-04-14T12:52:05.718Z,12.05
2019-04-14T12:54:39.099Z,12.53
2019-04-14T12:57:10.974Z,12.89
2019-04-14T12:59:40.827Z,14.05
2019-04-14T13:02:18.249Z,14.66
2019-04-14T13:04:49.287Z,16.16
2019-04-14T13:07:19.314Z,17.17
2019-04-14T13:09:51.107Z,15.69
2019-04-14T13:12:20.722Z,16.81
2019-04-14T13:14:51.474Z,16.30
2019-04-14T13:17:20.955Z,14.13
2019-04-14T13:19:50.448Z,15.20
2019-04-14T13:22:36.766Z,15.44
2019-04-14T13:25:06.649Z,12.82
2019-04-14T13:27:37.720Z,12.17
2019-04-14T13:30:13.475Z,11.83
2019-04-14T13:32:53.922Z,11.68
2019-04-14T13:35:23.919Z,13.28
2019-04-14T13:37:54.521Z,14.34
2019-04-14T13:40:26.322Z,13.43
2019-04-14T13:42:55.915Z,13.16
2019-04-14T13:45:26.122Z,11.92
2019-04-14T13:47:55.418Z,11.55
2019-04-14T13:50:24.726Z,11.44
2019-04-14T13:52:54.835Z,11.55
2019-04-14T13:55:24.178Z,12.16
2019-04-14T13:57:53.563Z,12.22
2019-04-14T14:00:23.742Z,11.05
2019-04-14T14:02:53.172Z,10.36
2019-04-14T14:05:23.220Z,10.66
2019-04-14T14:07:52.902Z,10.64
2019-04-14T14:10:22.702Z,10.98
2019-04-14T14:13:12.483Z,11.24
2019-04-14T14:16:01.081Z,11.71
2019-04-14T14:18:44.035Z,12.37
2019-04-14T14:21:38.402Z,11.98
2019-04-14T14:24:29.722Z,11.84
2019-04-14T14:26:59.462Z,11.70
2019-04-14T14:29:29.191Z,11.73
2019-04-14T14:31:59.275Z,11.64
2019-04-14T14:34:30.173Z,11.37
2019-04-14T14:36:59.863Z,11.58
2019-04-14T14:39:29.685Z,12.04
2019-04-14T14:41:59.443Z,12.22
2019-04-14T14:44:36.132Z,12.36
2019-04-14T14:47:17.912Z,12.49
2019-04-14T14:50:06.436Z,11.86
2019-04-14T14:52:36.975Z,12.22
2019-04-14T14:55:06.953Z,12.31
2019-04-14T14:57:36.387Z,11.60
2019-04-14T15:00:09.886Z,11.35
2019-04-14T15:02:39.916Z,11.25
2019-04-14T15:05:09.537Z,11.14
2019-04-14T15:07:38.902Z,10.48
2019-04-14T15:10:08.487Z,9.83
2019-04-14T15:12:38.418Z,9.51
2019-04-14T15:15:08.577Z,9.60
2019-04-14T15:17:38.033Z,9.75
2019-04-14T15:20:07.650Z,10.00
2019-04-14T15:22:37.248Z,9.87
2019-04-14T15:25:07.068Z,9.95
2019-04-14T15:27:36.841Z,9.90
2019-04-14T15:30:08.277Z,9.73
2019-04-14T15:32:37.731Z,9.51
2019-04-14T15:35:08.100Z,9.51
2019-04-14T15:37:37.434Z,9.23
2019-04-14T15:40:07.117Z,8.86
2019-04-14T15:42:36.494Z,8.70
2019-04-14T15:45:06.993Z,8.77
2019-04-14T15:47:36.324Z,8.70
2019-04-14T15:50:06.150Z,8.76
2019-04-14T15:52:35.734Z,8.72
2019-04-14T15:55:05.414Z,8.82
2019-04-14T15:57:50.318Z,9.02
2019-04-14T16:00:39.078Z,9.07
2019-04-14T16:03:21.795Z,8.90
2019-04-14T16:06:16.255Z,8.70
2019-04-14T16:09:07.438Z,8.69
2019-04-14T16:11:52.898Z,8.74
2019-04-14T16:14:34.889Z,8.74
2019-04-14T16:17:27.150Z,8.88
2019-04-14T16:20:01.798Z,8.74
2019-04-14T16:22:31.340Z,8.74
2019-04-14T16:25:00.862Z,8.94
2019-04-14T16:27:43.558Z,9.00
2019-04-14T16:30:41.952Z,9.03
2019-04-14T16:33:24.504Z,8.87
2019-04-14T16:35:54.818Z,8.66
2019-04-14T16:38:24.418Z,8.52
2019-04-14T16:40:54.896Z,8.52
2019-04-14T16:43:26.280Z,8.63
2019-04-14T16:45:56.333Z,8.61
2019-04-14T16:48:26.013Z,8.71
2019-04-14T16:50:55.673Z,8.72
2019-04-14T16:53:36.219Z,8.63
2019-04-14T16:56:33.639Z,8.51
2019-04-14T16:59:06.642Z,8.29
2019-04-14T17:01:41.162Z,8.41
2019-04-14T17:04:11.129Z,8.41
2019-04-14T17:06:40.748Z,8.53
2019-04-14T17:09:10.352Z,8.49
2019-04-14T17:11:40.094Z,8.33
2019-04-14T17:14:17.562Z,8.13
2019-04-14T17:16:55.654Z,8.10
2019-04-14T17:19:41.562Z,8.15
2019-04-14T17:22:15.095Z,8.05
2019-04-14T17:25:22.051Z,7.90
2019-04-14T17:28:13.409Z,8.01
2019-04-14T17:30:46.522Z,8.10
2019-04-14T17:33:34.008Z,8.04
2019-04-14T17:36:25.094Z,7.96
2019-04-14T17:39:08.530Z,7.94
2019-04-14T17:41:46.258Z,7.84
2019-04-14T17:44:35.647Z,7.59
2019-04-14T17:47:13.412Z,7.42
2019-04-14T17:50:08.951Z,7.25
2019-04-14T17:52:52.237Z,7.03
2019-04-14T17:55:28.384Z,6.94
2019-04-14T17:58:06.299Z,6.88
2019-04-14T18:00:53.653Z,6.78
2019-04-14T18:03:45.342Z,6.82
2019-04-14T18:06:25.755Z,6.99
2019-04-14T18:09:20.652Z,7.04
2019-04-14T18:12:03.942Z,6.93
2019-04-14T18:14:44.484Z,6.89
2019-04-14T18:17:42.369Z,6.89
2019-04-14T18:20:21.834Z,6.80
2019-04-14T18:22:52.708Z,6.71
2019-04-14T18:25:22.370Z,6.68
2019-04-14T18:28:22.950Z,6.66
2019-04-14T18:30:58.170Z,6.58
2019-04-14T18:33:44.375Z,6.53
2019-04-14T18:36:30.461Z,6.46
2019-04-14T18:39:22.420Z,6.37
2019-04-14T18:42:03.053Z,6.34
2019-04-14T18:44:59.685Z,6.34
2019-04-14T18:47:57.217Z,6.29
2019-04-14T18:50:34.127Z,6.27
2019-04-14T18:53:11.748Z,6.24
2019-04-14T18:56:06.245Z,6.21
2019-04-14T18:58:51.320Z,6.14
2019-04-14T19:01:26.940Z,6.13
2019-04-14T19:03:58.111Z,6.00
2019-04-14T19:06:28.381Z,6.00
2019-04-14T19:08:58.052Z,6.01
2019-04-14T19:11:49.470Z,6.01
2019-04-14T19:14:33.681Z,6.03
2019-04-14T19:17:08.814Z,6.02
2019-04-14T19:19:40.141Z,6.01
2019-04-14T19:22:09.594Z,5.96
2019-04-14T19:24:39.157Z,5.89
2019-04-14T19:27:08.635Z,5.86
2019-04-14T19:29:38.070Z,5.81
2019-04-14T19:32:07.979Z,5.77
2019-04-14T19:34:37.424Z,5.79
2019-04-14T19:37:07.694Z,5.74
2019-04-14T19:39:37.044Z,5.70
2019-04-14T19:42:06.390Z,5.70
2019-04-14T19:44:36.067Z,5.66
2019-04-14T19:47:05.450Z,5.63
2019-04-14T19:49:34.847Z,5.65
2019-04-14T19:52:04.089Z,5.63
2019-04-14T19:54:34.571Z,5.62
2019-04-14T19:57:03.875Z,5.62
2019-04-14T19:59:33.140Z,5.60
2019-04-14T20:02:02.456Z,5.59
2019-04-14T20:04:31.796Z,5.61
2019-04-14T20:07:01.129Z,5.58
2019-04-14T20:09:30.866Z,5.59
2019-04-14T20:12:00.263Z,5.56
2019-04-14T20:14:29.929Z,5.55
2019-04-14T20:17:07.880Z,5.56
2019-04-14T20:19:51.740Z,5.53
2019-04-14T20:22:35.625Z,5.54
2019-04-14T20:25:09.584Z,5.57
2019-04-14T20:27:56.710Z,5.55
2019-04-14T20:30:33.163Z,5.56
2019-04-14T20:33:04.650Z,5.58
2019-04-14T20:35:34.717Z,5.58
2019-04-14T20:38:08.554Z,5.57
2019-04-14T20:40:51.807Z,5.57
2019-04-14T20:43:23.749Z,5.60
2019-04-14T20:46:18.101Z,5.65
2019-04-14T20:48:50.592Z,5.70
2019-04-14T20:51:20.508Z,5.69
2019-04-14T20:53:49.984Z,5.70
2019-04-14T20:56:19.872Z,5.69
2019-04-14T20:58:51.609Z,5.69
2019-04-14T21:01:21.910Z,5.67
2019-04-14T21:04:09.011Z,5.69
2019-04-14T21:06:57.664Z,5.72
2019-04-14T21:09:49.677Z,5.74
2019-04-14T21:12:41.962Z,5.78
2019-04-14T21:15:18.436Z,5.81
2019-04-14T21:17:56.211Z,5.79
2019-04-14T21:20:33.857Z,5.84
2019-04-14T21:23:13.956Z,5.76
2019-04-14T21:26:01.637Z,5.75
2019-04-14T21:28:49.043Z,5.79
2019-04-14T21:31:40.707Z,5.79
2019-04-14T21:34:33.830Z,5.81
2019-04-14T21:37:22.858Z,5.84
2019-04-14T21:40:11.823Z,5.87
2019-04-14T21:42:43.921Z,5.87
2019-04-14T21:45:16.685Z,5.84
2019-04-14T21:47:49.024Z,5.90
2019-04-14T21:50:19.522Z,5.92
2019-04-14T21:52:53.617Z,5.92
2019-04-14T21:55:29.457Z,5.86
2019-04-14T21:58:26.774Z,5.87
2019-04-14T22:01:47.595Z,5.89
2019-04-14T22:04:43.541Z,5.91
2019-04-14T22:07:56.495Z,5.88
2019-04-14T22:10:45.605Z,5.81
2019-04-14T22:13:17.105Z,5.85
2019-04-14T22:15:47.420Z,5.89
2019-04-14T22:18:20.890Z,5.94
2019-04-14T22:20:54.931Z,5.97
2019-04-14T22:23:30.593Z,5.96
2019-04-14T22:26:06.307Z,5.96
2019-04-14T22:29:02.453Z,5.95
2019-04-14T22:31:47.711Z,5.95
2019-04-14T22:34:23.295Z,5.90
2019-04-14T22:36:53.990Z,5.99
2019-04-14T22:39:26.242Z,5.97
2019-04-14T22:41:58.205Z,5.99
2019-04-14T22:44:29.607Z,5.97
2019-04-14T22:47:09.404Z,5.96
2019-04-14T22:49:42.146Z,5.95
2019-04-14T22:52:23.006Z,5.92
2019-04-14T22:55:05.267Z,5.94
2019-04-14T22:57:40.457Z,5.90
2019-04-14T23:00:34.788Z,5.88
2019-04-14T23:03:42.372Z,5.88
2019-04-14T23:06:32.919Z,5.86
2019-04-14T23:09:31.789Z,5.92
2019-04-14T23:12:15.756Z,5.95
2019-04-14T23:15:07.267Z,5.93
2019-04-14T23:17:50.794Z,5.92
2019-04-14T23:20:31.399Z,5.88
2019-04-14T23:23:37.243Z,5.81
2019-04-14T23:26:16.971Z,5.79
2019-04-14T23:29:09.359Z,5.72
2019-04-14T23:31:42.719Z,5.74
2019-04-14T23:34:21.764Z,5.70
2019-04-14T23:36:56.657Z,5.71
2019-04-14T23:39:31.672Z,5.68
2019-04-14T23:42:11.329Z,5.69
2019-04-14T23:45:02.914Z,5.70
2019-04-14T23:47:36.151Z,5.71
2019-04-14T23:50:09.218Z,5.76
2019-04-14T23:53:03.988Z,5.74
2019-04-14T23:55:37.383Z,5.77
2019-04-14T23:58:10.870Z,5.78
